Time;durP1;ratioP1;P1;durP2;ratioP2;P2;SDS_P1;SDS_P2;PMS_P1;PMS_P2;Temp;Humidity;BMP_temperature;BMP_pressure;BME280_temperature;BME280_humidity;BME280_pressure;Samples;Min_cycle;Max_cycle;Signal;HPM_P1;HPM_P2
2022/04/04 18:56:45;;;;;;;11.20;7.10;;;;;;;4.70;54.07;98994.77;85002;1315;601544;-74
2022/04/04 18:58:55;;;;;;;10.10;6.80;;;;;;;4.66;54.05;98986.35;87285;1289;77990;-74
2022/04/04 19:01:05;;;;;;;11.20;6.90;;;;;;;4.65;53.95;98980.44;87431;1286;81227;-73
2022/04/04 19:03:17;;;;;;;9.10;6.90;;;;;;;4.64;54.19;98974.52;87411;1286;97083;-75
2022/04/04 19:05:27;;;;;;;9.70;7.00;;;;;;;4.65;53.96;98976.49;87383;1286;89152;-77
2022/04/04 19:07:36;;;;;;;8.80;6.40;;;;;;;4.66;54.07;98974.45;88105;1276;95917;-74
2022/04/04 19:09:48;;;;;;;9.80;6.50;;;;;;;4.65;53.94;98971.11;87836;1276;383249;-72
2022/04/04 19:12:07;;;;;;;9.10;6.50;;;;;;;4.65;54.12;98965.80;88193;1276;84267;-72
2022/04/04 19:14:18;;;;;;;8.60;6.60;;;;;;;4.65;53.89;98964.16;88208;1274;97026;-71
2022/04/04 19:17:15;;;;;;;13.00;7.50;;;;;;;4.65;53.80;98960.38;88422;1264;88138;-75
2022/04/04 19:19:35;;;;;;;11.00;6.60;;;;;;;4.68;53.64;98950.84;88270;1273;92910;-72
2022/04/04 19:21:56;;;;;;;9.30;6.60;;;;;;;4.71;53.34;98948.59;88463;1263;78506;-71
2022/04/04 19:24:13;;;;;;;9.40;6.50;;;;;;;4.73;53.36;98938.90;88379;1266;84422;-71
2022/04/04 19:27:13;;;;;;;10.40;6.40;;;;;;;4.74;53.23;98939.00;88349;1266;98559;-73
2022/04/04 19:29:30;;;;;;;9.50;6.30;;;;;;;4.75;53.29;98933.35;88205;1276;86640;-73
2022/04/04 19:31:44;;;;;;;7.60;5.90;;;;;;;4.76;53.06;98931.45;88195;1275;95350;-71
2022/04/04 19:33:56;;;;;;;9.90;6.20;;;;;;;4.78;52.83;98924.64;88201;1276;77719;-70
2022/04/04 19:36:14;;;;;;;8.30;5.70;;;;;;;4.79;52.69;98918.27;88367;1266;82201;-72
2022/04/04 19:38:35;;;;;;;9.20;6.40;;;;;;;4.80;52.44;98917.18;88299;1273;96869;-70
2022/04/04 19:40:50;;;;;;;8.60;5.60;;;;;;;4.83;52.35;98909.96;88250;1273;85958;-73
2022/04/04 19:43:20;;;;;;;7.90;5.70;;;;;;;4.86;52.19;98904.70;88239;1273;93535;-71
2022/04/04 19:45:32;;;;;;;7.70;5.50;;;;;;;4.87;52.26;98905.44;88300;1264;76760;-73
2022/04/04 19:47:42;;;;;;;10.10;6.20;;;;;;;4.88;52.02;98899.33;88225;1274;81031;-75
2022/04/04 19:49:51;;;;;;;9.70;6.10;;;;;;;4.89;52.04;98893.98;88251;1273;98171;-71
2022/04/04 19:52:01;;;;;;;7.20;6.10;;;;;;;4.91;51.90;98890.21;88230;1273;85770;-71
2022/04/04 19:54:15;;;;;;;9.00;6.50;;;;;;;4.91;52.05;98886.02;88242;1273;94175;-73
2022/04/04 19:56:26;;;;;;;8.30;5.80;;;;;;;4.90;52.27;98874.23;88238;1273;79349;-71
2022/04/04 19:58:41;;;;;;;9.80;6.60;;;;;;;4.89;52.38;98870.10;88248;1273;79988;-72
2022/04/04 20:00:52;;;;;;;10.10;6.40;;;;;;;4.88;52.27;98875.08;88227;1274;96819;-72
2022/04/04 20:03:02;;;;;;;9.70;6.20;;;;;;;4.86;52.49;98864.45;88241;1273;90284;-71
2022/04/04 20:05:14;;;;;;;8.30;6.20;;;;;;;4.85;52.63;98863.60;88217;1273;94142;-71
2022/04/04 20:07:23;;;;;;;11.60;6.80;;;;;;;4.84;52.69;98863.14;88241;1273;79177;-71
2022/04/04 20:09:32;;;;;;;9.50;5.90;;;;;;;4.85;52.83;98855.08;88255;1273;80505;-70
2022/04/04 20:11:41;;;;;;;8.10;6.10;;;;;;;4.85;52.95;98859.73;88188;1273;98342;-70
2022/04/04 20:13:50;;;;;;;9.30;6.70;;;;;;;4.84;52.92;98854.08;88260;1273;87938;-73
2022/04/04 20:16:03;;;;;;;8.50;6.60;;;;;;;4.82;53.17;98849.91;88230;1272;95333;-74
2022/04/04 20:18:14;;;;;;;9.00;5.70;;;;;;;4.80;53.38;98848.86;88229;1273;78399;-74
2022/04/04 20:20:26;;;;;;;9.70;6.60;;;;;;;4.80;53.62;98838.27;88195;1273;80412;-71
2022/04/04 20:22:38;;;;;;;8.60;5.90;;;;;;;4.80;53.68;98838.20;88254;1273;97760;-71
2022/04/04 20:24:50;;;;;;;9.20;6.20;;;;;;;4.81;53.74;98834.75;88149;1276;89804;-70
2022/04/04 20:27:04;;;;;;;7.80;5.50;;;;;;;4.80;53.98;98831.48;88226;1273;96032;-71
2022/04/04 20:29:16;;;;;;;8.60;5.90;;;;;;;4.78;54.05;98822.41;88231;1273;76962;-74
2022/04/04 20:31:24;;;;;;;8.50;6.10;;;;;;;4.78;53.94;98815.46;88222;1273;82362;-74
2022/04/04 20:33:36;;;;;;;7.70;5.10;;;;;;;4.77;54.22;98812.04;88229;1273;95725;-72
2022/04/04 20:35:45;;;;;;;10.10;5.70;;;;;;;4.77;54.26;98804.30;88218;1274;88091;-73
2022/04/04 20:37:56;;;;;;;8.60;5.10;;;;;;;4.78;54.24;98804.42;88216;1273;95632;-72
2022/04/04 20:40:06;;;;;;;7.90;5.40;;;;;;;4.76;54.36;98802.27;88216;1273;77776;-72
2022/04/04 20:42:18;;;;;;;9.40;5.80;;;;;;;4.74;54.56;98793.77;88232;1273;82879;-70
2022/04/04 20:44:26;;;;;;;7.90;5.40;;;;;;;4.72;55.04;98793.67;88243;1273;97260;-74
2022/04/04 20:46:38;;;;;;;7.20;5.40;;;;;;;4.72;54.99;98790.35;88186;1273;89961;-75
2022/04/04 20:48:50;;;;;;;6.90;5.10;;;;;;;4.69;55.39;98786.20;88217;1273;95524;-72
2022/04/04 20:50:59;;;;;;;7.00;5.20;;;;;;;4.66;55.66;98785.52;88220;1273;79054;-71
2022/04/04 20:53:08;;;;;;;8.40;5.20;;;;;;;4.66;55.63;98783.48;88215;1273;82497;-69
2022/04/04 20:55:17;;;;;;;11.70;5.10;;;;;;;4.63;56.09;98775.38;88236;1273;97318;-72
2022/04/04 20:57:26;;;;;;;7.60;5.40;;;;;;;4.62;56.14;98776.33;88208;1273;89511;-73
2022/04/04 21:00:02;;;;;;;6.10;4.70;;;;;;;4.59;56.43;98776.24;88224;1273;93720;-71
2022/04/04 21:02:17;;;;;;;6.70;4.90;;;;;;;4.57;56.91;98768.06;88220;1273;78321;-73
2022/04/04 21:05:10;;;;;;;8.60;5.30;;;;;;;4.55;57.44;98765.62;88223;1273;81680;-79
2022/04/04 21:07:48;;;;;;;6.10;5.00;;;;;;;4.53;57.11;98761.16;88192;1276;97096;-73
2022/04/04 21:10:01;;;;;;;8.80;5.00;;;;;;;4.51;57.09;98761.02;88245;1273;87223;-76
2022/04/04 21:12:13;;;;;;;6.40;4.70;;;;;;;4.48;57.11;98755.39;88208;1274;95732;-72
2022/04/04 21:14:27;;;;;;;6.10;4.60;;;;;;;4.45;57.73;98753.47;88217;1273;79910;-74
2022/04/04 21:16:40;;;;;;;10.60;5.10;;;;;;;4.42;58.10;98749.73;88233;1273;83240;-78
2022/04/04 21:18:50;;;;;;;7.90;5.50;;;;;;;4.41;57.98;98747.26;88197;1273;98204;-74
2022/04/04 21:21:01;;;;;;;8.50;5.80;;;;;;;4.37;58.10;98745.33;88233;1273;88409;-76
2022/04/04 21:23:10;;;;;;;6.90;5.30;;;;;;;4.35;58.45;98740.53;88225;1273;96543;-75
2022/04/04 21:25:19;;;;;;;7.20;4.80;;;;;;;4.30;58.63;98732.71;88238;1273;77594;-74
2022/04/04 21:27:32;;;;;;;6.70;4.70;;;;;;;4.27;58.71;98734.27;88170;1276;80186;-74
2022/04/04 21:29:41;;;;;;;7.70;5.80;;;;;;;4.22;58.53;98729.29;88246;1273;98551;-78
2022/04/04 21:31:50;;;;;;;9.90;5.40;;;;;;;4.18;58.99;98725.88;88233;1273;89065;-71
2022/04/04 21:34:00;;;;;;;8.30;5.20;;;;;;;4.14;59.20;98720.25;88224;1273;93778;-71
2022/04/04 21:36:12;;;;;;;8.50;5.50;;;;;;;4.12;59.44;98719.23;88214;1273;78116;-73
2022/04/04 21:38:24;;;;;;;9.60;5.20;;;;;;;4.10;59.42;98708.45;88207;1273;82773;-75
2022/04/04 21:40:34;;;;;;;6.60;5.40;;;;;;;4.08;59.50;98707.23;88162;1274;96816;-73
2022/04/04 21:42:42;;;;;;;7.50;5.20;;;;;;;4.06;59.31;98702.04;88225;1273;87577;-74
2022/04/04 21:44:52;;;;;;;5.50;4.70;;;;;;;4.04;59.38;98695.92;88182;1273;95303;-75
2022/04/04 21:47:10;;;;;;;6.10;4.80;;;;;;;3.99;59.80;98692.71;88220;1273;78367;-74
2022/04/04 21:49:23;;;;;;;9.20;5.10;;;;;;;3.98;59.94;98685.17;88223;1273;81021;-75
2022/04/04 21:51:35;;;;;;;8.50;5.60;;;;;;;3.98;60.08;98683.40;88231;1273;96142;-74
2022/04/04 21:53:45;;;;;;;8.10;5.30;;;;;;;3.99;59.64;98680.86;88215;1273;88508;-73
2022/04/04 21:55:54;;;;;;;7.70;5.00;;;;;;;3.99;59.70;98673.88;88219;1273;93415;-74
2022/04/04 21:58:03;;;;;;;10.00;5.40;;;;;;;4.00;60.23;98666.46;88209;1273;77668;-75
2022/04/04 22:00:24;;;;;;;8.60;5.40;;;;;;;4.02;60.37;98668.33;88219;1273;81243;-75
2022/04/04 22:02:33;;;;;;;6.80;4.70;;;;;;;4.04;60.07;98659.16;88201;1273;97314;-76
2022/04/04 22:04:45;;;;;;;7.10;5.10;;;;;;;4.05;60.11;98658.36;88214;1273;88046;-76
2022/04/04 22:06:57;;;;;;;7.10;5.10;;;;;;;4.06;60.17;98648.36;88204;1273;93981;-75
2022/04/04 22:09:09;;;;;;;7.10;5.30;;;;;;;4.08;60.31;98647.77;88204;1273;77745;-74
2022/04/04 22:11:22;;;;;;;7.40;5.20;;;;;;;4.09;60.38;98646.86;88219;1274;82231;-76
2022/04/04 22:13:37;;;;;;;7.80;5.40;;;;;;;4.10;60.36;98643.45;88236;1273;97218;-74
2022/04/04 22:15:46;;;;;;;10.30;5.30;;;;;;;4.10;60.31;98645.05;88206;1273;89482;-74
2022/04/04 22:17:58;;;;;;;9.30;5.40;;;;;;;4.11;60.27;98640.14;88186;1271;94890;-76
2022/04/04 22:20:30;;;;;;;7.60;5.50;;;;;;;4.12;60.76;98638.27;88182;1273;78056;-74
2022/04/04 22:23:41;;;;;;;6.30;5.20;;;;;;;4.13;60.56;98635.63;88236;1274;82023;-76
2022/04/04 22:26:19;;;;;;;6.40;5.30;;;;;;;4.12;60.78;98631.61;88212;1273;97385;-76
2022/04/04 22:29:12;;;;;;;7.20;5.10;;;;;;;4.12;60.87;98640.93;88256;1273;88252;-75
2022/04/04 22:31:29;;;;;;;7.00;5.10;;;;;;;4.11;61.15;98639.27;88235;1273;94638;-75
2022/04/04 22:33:42;;;;;;;7.30;5.50;;;;;;;4.11;61.27;98638.41;88222;1273;77092;-76
2022/04/04 22:35:50;;;;;;;7.10;5.10;;;;;;;4.10;61.34;98641.94;88221;1273;81497;-75
2022/04/04 22:38:02;;;;;;;7.70;5.50;;;;;;;4.07;62.77;98632.09;88185;1273;98503;-76
2022/04/04 22:40:15;;;;;;;10.40;5.80;;;;;;;4.03;63.43;98633.41;88239;1273;89176;-75
2022/04/04 22:42:24;;;;;;;10.60;7.30;;;;;;;4.02;63.03;98638.95;88195;1274;94281;-76
2022/04/04 22:44:33;;;;;;;11.80;5.90;;;;;;;4.02;64.09;98633.10;88192;1273;79585;-73
2022/04/04 22:46:42;;;;;;;11.00;5.60;;;;;;;4.00;65.18;98637.20;88206;1273;81482;-74
2022/04/04 22:48:52;;;;;;;8.60;6.30;;;;;;;3.99;64.72;98632.61;88171;1276;95835;-73
2022/04/04 22:51:06;;;;;;;9.40;6.40;;;;;;;3.96;65.87;98644.55;88210;1273;88389;-74
2022/04/04 22:53:14;;;;;;;9.90;6.30;;;;;;;3.92;66.87;98639.94;88216;1274;94738;-75
2022/04/04 22:55:24;;;;;;;11.20;6.60;;;;;;;3.86;66.93;98637.80;88182;1273;77234;-73
2022/04/04 22:57:36;;;;;;;9.80;6.60;;;;;;;3.78;67.10;98635.45;88230;1274;83867;-75
2022/04/04 22:59:45;;;;;;;9.80;6.60;;;;;;;3.66;68.15;98632.23;88173;1276;98056;-75
2022/04/04 23:01:57;;;;;;;9.60;6.40;;;;;;;3.59;68.83;98629.27;88206;1273;89243;-74
2022/04/04 23:04:06;;;;;;;9.20;5.90;;;;;;;3.48;69.01;98622.74;88186;1273;92506;-73
2022/04/04 23:06:15;;;;;;;9.50;6.60;;;;;;;3.40;69.50;98615.67;88138;1276;83134;-72
2022/04/04 23:08:23;;;;;;;11.40;6.40;;;;;;;3.35;70.02;98607.96;88228;1272;81223;-72
2022/04/04 23:10:32;;;;;;;8.20;6.50;;;;;;;3.32;70.33;98610.86;88228;1273;98864;-76
2022/04/04 23:12:41;;;;;;;8.80;6.10;;;;;;;3.31;70.39;98609.00;88236;1273;87130;-77
2022/04/04 23:14:50;;;;;;;10.10;6.90;;;;;;;3.22;70.48;98603.79;88212;1273;92521;-75
2022/04/04 23:16:59;;;;;;;9.50;7.00;;;;;;;3.19;70.21;98594.88;88208;1273;77539;-75
2022/04/04 23:19:08;;;;;;;12.70;7.60;;;;;;;3.19;70.84;98591.28;88195;1274;81857;-74
2022/04/04 23:21:17;;;;;;;10.30;7.60;;;;;;;3.18;70.96;98594.50;88175;1273;99204;-74
2022/04/04 23:23:26;;;;;;;11.20;7.30;;;;;;;3.15;71.07;98589.30;88201;1273;86558;-75
2022/04/04 23:25:35;;;;;;;11.30;7.20;;;;;;;3.11;71.32;98582.02;88185;1274;94708;-72
2022/04/04 23:27:44;;;;;;;12.10;7.70;;;;;;;3.09;71.33;98574.98;88183;1273;79939;-73
2022/04/04 23:29:53;;;;;;;9.80;7.20;;;;;;;3.08;72.09;98578.13;88230;1273;81961;-77
2022/04/04 23:32:02;;;;;;;12.60;7.40;;;;;;;3.09;71.89;98578.17;88207;1273;97405;-75
2022/04/04 23:34:11;;;;;;;9.20;7.00;;;;;;;3.13;72.20;98575.19;88132;1276;89391;-74
2022/04/04 23:36:23;;;;;;;10.40;7.10;;;;;;;3.17;71.95;98571.64;88205;1273;95511;-74
2022/04/04 23:38:32;;;;;;;8.70;7.30;;;;;;;3.18;73.09;98566.67;88187;1273;79707;-73
2022/04/04 23:40:40;;;;;;;9.90;7.10;;;;;;;3.18;72.80;98560.64;88209;1273;82581;-73
2022/04/04 23:42:49;;;;;;;13.40;7.40;;;;;;;3.16;73.28;98558.77;88230;1273;97985;-74
2022/04/04 23:44:58;;;;;;;11.00;7.80;;;;;;;3.18;73.18;98554.94;88181;1273;88690;-74
2022/04/04 23:47:08;;;;;;;10.00;8.10;;;;;;;3.20;73.19;98548.64;88207;1273;95853;-77
2022/04/04 23:49:17;;;;;;;11.60;7.90;;;;;;;3.22;72.78;98547.67;88200;1273;79200;-72
2022/04/04 23:51:29;;;;;;;10.80;7.70;;;;;;;3.15;73.10;98544.89;88198;1273;81723;-72
2022/04/04 23:53:40;;;;;;;10.60;8.50;;;;;;;3.13;72.92;98540.27;88220;1273;98545;-75
2022/04/04 23:55:49;;;;;;;9.00;7.00;;;;;;;3.16;73.92;98538.20;88189;1273;88865;-74
2022/04/04 23:57:59;;;;;;;8.80;7.60;;;;;;;3.14;74.45;98527.05;88197;1273;95430;-74
